sensor_id;sensor_type;location;lat;lon;timestamp;P1;durP1;ratioP1;P2;durP2;ratioP2
26838;SDS011;40088;51.214;6.786;2023-05-20T00:05:25;6.30;;;3.92;;
26838;SDS011;40088;51.214;6.786;2023-05-20T00:15:26;4.93;;;3.70;;
26838;SDS011;40088;51.214;6.786;2023-05-20T00:25:26;7.17;;;3.70;;
26838;SDS011;40088;51.214;6.786;2023-05-20T00:35:26;5.65;;;3.30;;
26838;SDS011;40088;51.214;6.786;2023-05-20T00:45:27;4.03;;;3.00;;
26838;SDS011;40088;51.214;6.786;2023-05-20T00:55:28;6.93;;;3.83;;
26838;SDS011;40088;51.214;6.786;2023-05-20T01:05:28;5.78;;;3.05;;
26838;SDS011;40088;51.214;6.786;2023-05-20T01:15:28;4.03;;;3.10;;
26838;SDS011;40088;51.214;6.786;2023-05-20T01:25:30;3.03;;;2.70;;
26838;SDS011;40088;51.214;6.786;2023-05-20T01:35:31;5.60;;;3.00;;
26838;SDS011;40088;51.214;6.786;2023-05-20T01:45:31;5.80;;;3.28;;
26838;SDS011;40088;51.214;6.786;2023-05-20T01:55:32;3.53;;;2.88;;
26838;SDS011;40088;51.214;6.786;2023-05-20T02:05:32;3.90;;;2.90;;
26838;SDS011;40088;51.214;6.786;2023-05-20T02:15:33;4.50;;;3.10;;
26838;SDS011;40088;51.214;6.786;2023-05-20T02:25:33;4.68;;;2.95;;
26838;SDS011;40088;51.214;6.786;2023-05-20T02:35:33;3.63;;;2.92;;
26838;SDS011;40088;51.214;6.786;2023-05-20T02:45:34;3.78;;;2.75;;
26838;SDS011;40088;51.214;6.786;2023-05-20T02:55:35;3.85;;;2.78;;
26838;SDS011;40088;51.214;6.786;2023-05-20T03:05:36;4.07;;;2.88;;
26838;SDS011;40088;51.214;6.786;2023-05-20T03:15:37;4.15;;;2.85;;
26838;SDS011;40088;51.214;6.786;2023-05-20T03:25:38;3.60;;;2.50;;
26838;SDS011;40088;51.214;6.786;2023-05-20T03:35:39;3.35;;;2.67;;
26838;SDS011;40088;51.214;6.786;2023-05-20T03:45:40;3.92;;;2.92;;
26838;SDS011;40088;51.214;6.786;2023-05-20T03:55:40;3.80;;;2.28;;
26838;SDS011;40088;51.214;6.786;2023-05-20T04:05:41;4.43;;;2.95;;
26838;SDS011;40088;51.214;6.786;2023-05-20T04:15:41;4.95;;;2.95;;
26838;SDS011;40088;51.214;6.786;2023-05-20T04:25:41;5.63;;;2.70;;
26838;SDS011;40088;51.214;6.786;2023-05-20T04:35:43;14.15;;;2.63;;
26838;SDS011;40088;51.214;6.786;2023-05-20T04:45:43;5.47;;;2.78;;
26838;SDS011;40088;51.214;6.786;2023-05-20T04:55:44;3.60;;;2.72;;
26838;SDS011;40088;51.214;6.786;2023-05-20T05:05:45;3.30;;;2.33;;
26838;SDS011;40088;51.214;6.786;2023-05-20T05:15:45;4.05;;;2.78;;
26838;SDS011;40088;51.214;6.786;2023-05-20T05:25:49;4.82;;;3.15;;
26838;SDS011;40088;51.214;6.786;2023-05-20T05:35:51;4.38;;;2.55;;
26838;SDS011;40088;51.214;6.786;2023-05-20T05:45:51;3.17;;;2.53;;
26838;SDS011;40088;51.214;6.786;2023-05-20T05:55:51;4.97;;;2.72;;
26838;SDS011;40088;51.214;6.786;2023-05-20T06:05:51;4.50;;;2.92;;
26838;SDS011;40088;51.214;6.786;2023-05-20T06:15:52;4.50;;;2.70;;
26838;SDS011;40088;51.214;6.786;2023-05-20T06:25:56;4.22;;;2.83;;
26838;SDS011;40088;51.214;6.786;2023-05-20T06:35:57;3.67;;;2.35;;
26838;SDS011;40088;51.214;6.786;2023-05-20T06:45:57;4.03;;;2.55;;
26838;SDS011;40088;51.214;6.786;2023-05-20T06:55:58;3.60;;;2.70;;
26838;SDS011;40088;51.214;6.786;2023-05-20T07:05:58;5.15;;;2.75;;
26838;SDS011;40088;51.214;6.786;2023-05-20T07:15:58;6.43;;;2.42;;
26838;SDS011;40088;51.214;6.786;2023-05-20T07:25:59;4.88;;;2.60;;
26838;SDS011;40088;51.214;6.786;2023-05-20T07:35:59;2.90;;;2.15;;
26838;SDS011;40088;51.214;6.786;2023-05-20T07:45:59;2.88;;;2.45;;
26838;SDS011;40088;51.214;6.786;2023-05-20T07:56:00;3.35;;;2.15;;
26838;SDS011;40088;51.214;6.786;2023-05-20T08:06:01;4.57;;;2.30;;
26838;SDS011;40088;51.214;6.786;2023-05-20T08:16:01;4.43;;;2.55;;
26838;SDS011;40088;51.214;6.786;2023-05-20T08:26:03;3.45;;;2.60;;
26838;SDS011;40088;51.214;6.786;2023-05-20T08:36:03;4.75;;;2.90;;
26838;SDS011;40088;51.214;6.786;2023-05-20T08:46:03;3.97;;;2.65;;
26838;SDS011;40088;51.214;6.786;2023-05-20T08:56:05;3.05;;;2.53;;
26838;SDS011;40088;51.214;6.786;2023-05-20T09:06:08;3.97;;;2.60;;
26838;SDS011;40088;51.214;6.786;2023-05-20T09:16:09;4.53;;;3.33;;
26838;SDS011;40088;51.214;6.786;2023-05-20T09:26:10;4.30;;;2.60;;
26838;SDS011;40088;51.214;6.786;2023-05-20T09:36:11;3.92;;;2.60;;
26838;SDS011;40088;51.214;6.786;2023-05-20T09:46:12;4.07;;;2.80;;
26838;SDS011;40088;51.214;6.786;2023-05-20T09:56:13;3.40;;;2.67;;
26838;SDS011;40088;51.214;6.786;2023-05-20T10:06:19;3.88;;;2.88;;
26838;SDS011;40088;51.214;6.786;2023-05-20T10:27:01;3.42;;;2.83;;
26838;SDS011;40088;51.214;6.786;2023-05-20T10:37:04;3.97;;;3.20;;
26838;SDS011;40088;51.214;6.786;2023-05-20T10:47:04;4.53;;;3.10;;
26838;SDS011;40088;51.214;6.786;2023-05-20T10:57:05;3.72;;;2.90;;
26838;SDS011;40088;51.214;6.786;2023-05-20T11:07:08;5.50;;;3.03;;
26838;SDS011;40088;51.214;6.786;2023-05-20T11:17:09;3.58;;;3.05;;
26838;SDS011;40088;51.214;6.786;2023-05-20T11:27:09;5.07;;;3.22;;
26838;SDS011;40088;51.214;6.786;2023-05-20T11:37:09;5.05;;;3.60;;
26838;SDS011;40088;51.214;6.786;2023-05-20T11:47:10;4.15;;;3.45;;
26838;SDS011;40088;51.214;6.786;2023-05-20T11:57:10;4.97;;;3.40;;
26838;SDS011;40088;51.214;6.786;2023-05-20T12:07:11;4.28;;;3.55;;
26838;SDS011;40088;51.214;6.786;2023-05-20T12:27:14;3.70;;;3.38;;
26838;SDS011;40088;51.214;6.786;2023-05-20T12:37:15;5.07;;;3.63;;
26838;SDS011;40088;51.214;6.786;2023-05-20T12:47:15;4.18;;;3.00;;
26838;SDS011;40088;51.214;6.786;2023-05-20T12:57:15;3.58;;;3.00;;
26838;SDS011;40088;51.214;6.786;2023-05-20T13:07:17;4.90;;;3.45;;
26838;SDS011;40088;51.214;6.786;2023-05-20T13:17:18;5.85;;;3.67;;
26838;SDS011;40088;51.214;6.786;2023-05-20T13:27:18;4.55;;;3.83;;
26838;SDS011;40088;51.214;6.786;2023-05-20T13:37:18;5.57;;;3.13;;
26838;SDS011;40088;51.214;6.786;2023-05-20T13:47:19;4.68;;;3.55;;
26838;SDS011;40088;51.214;6.786;2023-05-20T13:57:19;5.13;;;3.97;;
26838;SDS011;40088;51.214;6.786;2023-05-20T14:07:19;5.57;;;3.58;;
26838;SDS011;40088;51.214;6.786;2023-05-20T14:17:20;3.55;;;3.08;;
26838;SDS011;40088;51.214;6.786;2023-05-20T14:27:20;3.67;;;3.28;;
26838;SDS011;40088;51.214;6.786;2023-05-20T14:37:20;4.28;;;3.30;;
26838;SDS011;40088;51.214;6.786;2023-05-20T14:47:22;4.00;;;3.33;;
26838;SDS011;40088;51.214;6.786;2023-05-20T14:57:23;4.50;;;3.50;;
26838;SDS011;40088;51.214;6.786;2023-05-20T15:07:23;4.15;;;3.53;;
26838;SDS011;40088;51.214;6.786;2023-05-20T15:17:23;3.63;;;2.95;;
26838;SDS011;40088;51.214;6.786;2023-05-20T15:27:24;5.22;;;3.47;;
26838;SDS011;40088;51.214;6.786;2023-05-20T15:37:24;3.70;;;3.20;;
26838;SDS011;40088;51.214;6.786;2023-05-20T15:47:24;6.18;;;3.58;;
26838;SDS011;40088;51.214;6.786;2023-05-20T15:57:25;3.88;;;3.40;;
26838;SDS011;40088;51.214;6.786;2023-05-20T16:07:25;4.63;;;3.33;;
26838;SDS011;40088;51.214;6.786;2023-05-20T16:17:26;3.78;;;3.38;;
26838;SDS011;40088;51.214;6.786;2023-05-20T16:27:26;4.82;;;3.35;;
26838;SDS011;40088;51.214;6.786;2023-05-20T16:37:26;5.80;;;3.67;;
26838;SDS011;40088;51.214;6.786;2023-05-20T16:47:27;5.28;;;3.72;;
26838;SDS011;40088;51.214;6.786;2023-05-20T16:57:27;4.07;;;3.55;;
26838;SDS011;40088;51.214;6.786;2023-05-20T17:07:27;3.90;;;3.40;;
26838;SDS011;40088;51.214;6.786;2023-05-20T17:17:28;3.78;;;3.33;;
26838;SDS011;40088;51.214;6.786;2023-05-20T17:27:28;3.85;;;3.40;;
26838;SDS011;40088;51.214;6.786;2023-05-20T17:37:28;4.30;;;3.50;;
26838;SDS011;40088;51.214;6.786;2023-05-20T17:47:29;4.22;;;3.45;;
26838;SDS011;40088;51.214;6.786;2023-05-20T17:57:29;3.83;;;3.42;;
26838;SDS011;40088;51.214;6.786;2023-05-20T18:07:29;4.53;;;3.83;;
26838;SDS011;40088;51.214;6.786;2023-05-20T18:17:32;4.22;;;3.58;;
26838;SDS011;40088;51.214;6.786;2023-05-20T18:27:32;5.45;;;4.00;;
26838;SDS011;40088;51.214;6.786;2023-05-20T18:37:32;4.65;;;3.50;;
26838;SDS011;40088;51.214;6.786;2023-05-20T18:47:33;3.50;;;3.17;;
26838;SDS011;40088;51.214;6.786;2023-05-20T18:57:33;4.47;;;3.67;;
26838;SDS011;40088;51.214;6.786;2023-05-20T19:07:33;5.13;;;3.80;;
26838;SDS011;40088;51.214;6.786;2023-05-20T19:17:34;5.50;;;4.20;;
26838;SDS011;40088;51.214;6.786;2023-05-20T19:27:34;4.18;;;3.58;;
26838;SDS011;40088;51.214;6.786;2023-05-20T19:37:35;4.43;;;3.78;;
26838;SDS011;40088;51.214;6.786;2023-05-20T19:47:35;4.80;;;4.10;;
26838;SDS011;40088;51.214;6.786;2023-05-20T19:57:36;5.07;;;4.15;;
26838;SDS011;40088;51.214;6.786;2023-05-20T20:07:36;5.57;;;4.72;;
26838;SDS011;40088;51.214;6.786;2023-05-20T20:17:37;4.75;;;4.18;;
26838;SDS011;40088;51.214;6.786;2023-05-20T20:27:44;5.53;;;4.57;;
26838;SDS011;40088;51.214;6.786;2023-05-20T20:37:44;5.32;;;4.53;;
26838;SDS011;40088;51.214;6.786;2023-05-20T20:47:44;7.65;;;4.80;;
26838;SDS011;40088;51.214;6.786;2023-05-20T20:57:45;6.55;;;5.22;;
26838;SDS011;40088;51.214;6.786;2023-05-20T21:07:46;8.30;;;5.32;;
26838;SDS011;40088;51.214;6.786;2023-05-20T21:17:51;6.57;;;5.60;;
26838;SDS011;40088;51.214;6.786;2023-05-20T21:27:52;7.65;;;5.90;;
26838;SDS011;40088;51.214;6.786;2023-05-20T21:37:52;7.55;;;6.22;;
26838;SDS011;40088;51.214;6.786;2023-05-20T21:47:52;6.78;;;6.00;;
26838;SDS011;40088;51.214;6.786;2023-05-20T21:57:53;8.60;;;6.38;;
26838;SDS011;40088;51.214;6.786;2023-05-20T22:07:53;7.45;;;6.25;;
26838;SDS011;40088;51.214;6.786;2023-05-20T22:17:53;10.68;;;6.32;;
26838;SDS011;40088;51.214;6.786;2023-05-20T22:27:53;8.57;;;6.85;;
26838;SDS011;40088;51.214;6.786;2023-05-20T22:37:54;7.38;;;6.38;;
26838;SDS011;40088;51.214;6.786;2023-05-20T22:47:56;7.45;;;6.65;;
26838;SDS011;40088;51.214;6.786;2023-05-20T22:57:56;11.10;;;7.30;;
26838;SDS011;40088;51.214;6.786;2023-05-20T23:07:57;22.02;;;12.43;;
26838;SDS011;40088;51.214;6.786;2023-05-20T23:17:58;31.92;;;14.35;;
26838;SDS011;40088;51.214;6.786;2023-05-20T23:27:58;51.03;;;26.00;;
26838;SDS011;40088;51.214;6.786;2023-05-20T23:37:59;90.55;;;58.60;;
26838;SDS011;40088;51.214;6.786;2023-05-20T23:47:59;110.32;;;78.70;;
26838;SDS011;40088;51.214;6.786;2023-05-20T23:58:02;116.38;;;81.18;;
